Time,TemperatureF,DewpointF,PressureIn,WindDirection,WindDirectionDegrees,WindSpeedMPH,WindSpeedGustMPH,Humidity,HourlyPrecipIn,Conditions,Clouds,dailyrainin,SoftwareType,DateUTC
2013-01-28 00:00:00,57.8,55.0,29.85,South,189,5.0,-999.0,89,-99.99,,,0.00,weatherlink.com 1.10,2013-01-28 06:00:00,
2013-01-28 00:15:00,58.1,55.0,29.85,SSE,157,7.0,-999.0,89,-99.99,,,0.00,weatherlink.com 1.10,2013-01-28 06:15:00,
2013-01-28 00:30:00,58.4,55.0,29.85,SSE,157,4.0,-999.0,89,-99.99,,,0.00,weatherlink.com 1.10,2013-01-28 06:30:00,
2013-01-28 00:45:00,58.6,55.0,29.85,SSE,162,9.0,-999.0,89,-99.99,,,0.00,weatherlink.com 1.10,2013-01-28 06:45:00,
2013-01-28 01:00:00,58.9,55.0,29.85,SSE,164,7.0,-999.0,88,-99.99,,,0.00,weatherlink.com 1.10,2013-01-28 07:00:00,
2013-01-28 01:15:00,59.2,56.0,29.85,SSE,164,6.0,-999.0,88,-99.99,,,0.00,weatherlink.com 1.10,2013-01-28 07:15:00,
2013-01-28 01:30:00,59.5,56.0,29.85,South,182,7.0,-999.0,87,-99.99,,,0.00,weatherlink.com 1.10,2013-01-28 07:30:00,
2013-01-28 01:45:00,59.5,56.0,29.85,South,174,12.0,-999.0,87,-99.99,,,0.00,weatherlink.com 1.10,2013-01-28 07:45:00,
2013-01-28 02:00:00,60.1,56.0,29.84,SSE,161,10.0,-999.0,87,-99.99,,,0.00,weatherlink.com 1.10,2013-01-28 08:00:00,
2013-01-28 02:15:00,60.9,57.0,29.84,South,180,13.0,-999.0,87,-99.99,,,0.00,weatherlink.com 1.10,2013-01-28 08:15:00,
2013-01-28 02:30:00,61.2,57.0,29.84,SSW,196,6.0,-999.0,86,-99.99,,,0.00,weatherlink.com 1.10,2013-01-28 08:30:00,
2013-01-28 02:45:00,61.8,58.0,29.84,SSW,206,6.0,-999.0,86,-99.99,,,0.00,weatherlink.com 1.10,2013-01-28 08:45:00,
2013-01-28 03:00:00,63.5,59.0,29.84,SSW,196,5.0,-999.0,86,-99.99,,,0.00,weatherlink.com 1.10,2013-01-28 09:00:00,
2013-01-28 03:15:00,64.3,60.0,29.84,SSW,207,6.0,-999.0,85,-99.99,,,0.00,weatherlink.com 1.10,2013-01-28 09:15:00,
2013-01-28 03:30:00,65.0,60.0,29.83,South,188,7.0,-999.0,84,-99.99,,,0.00,weatherlink.com 1.10,2013-01-28 09:30:00,
2013-01-28 03:45:00,65.3,60.0,29.83,SSW,194,5.0,-999.0,83,-99.99,,,0.00,weatherlink.com 1.10,2013-01-28 09:45:00,
2013-01-28 04:00:00,65.6,60.0,29.83,South,180,14.0,-999.0,82,-99.99,,,0.00,weatherlink.com 1.10,2013-01-28 10:00:00,
2013-01-28 04:15:00,65.8,60.0,29.83,SSW,199,9.0,-999.0,82,-99.99,,,0.00,weatherlink.com 1.10,2013-01-28 10:15:00,
2013-01-28 04:30:00,66.0,60.0,29.83,South,191,11.0,-999.0,81,-99.99,,,0.00,weatherlink.com 1.10,2013-01-28 10:30:00,
2013-01-28 04:45:00,66.1,60.0,29.83,SSW,211,3.0,-999.0,81,-99.99,,,0.00,weatherlink.com 1.10,2013-01-28 10:45:00,
2013-01-28 05:00:00,66.0,60.0,29.83,SW,219,9.0,-999.0,81,-99.99,,,0.00,weatherlink.com 1.10,2013-01-28 11:00:00,
2013-01-28 05:15:00,66.0,60.0,29.83,SSW,200,10.0,-999.0,81,-99.99,,,0.00,weatherlink.com 1.10,2013-01-28 11:15:00,
2013-01-28 05:30:00,66.1,61.0,29.83,SSW,205,10.0,-999.0,82,-99.99,,,0.00,weatherlink.com 1.10,2013-01-28 11:30:00,
2013-01-28 05:45:00,66.1,61.0,29.83,SSW,207,9.0,-999.0,82,-99.99,,,0.00,weatherlink.com 1.10,2013-01-28 11:45:00,
2013-01-28 06:00:00,66.0,60.0,29.83,SSW,209,14.0,-999.0,82,-99.99,,,0.00,weatherlink.com 1.10,2013-01-28 12:00:00,
2013-01-28 06:15:00,66.0,60.0,29.84,South,178,10.0,-999.0,82,-99.99,,,0.00,weatherlink.com 1.10,2013-01-28 12:15:00,
2013-01-28 06:30:00,66.0,60.0,29.84,South,191,13.0,-999.0,82,-99.99,,,0.00,weatherlink.com 1.10,2013-01-28 12:30:00,
2013-01-28 06:45:00,65.8,60.0,29.84,SW,215,14.0,-999.0,82,-99.99,,,0.00,weatherlink.com 1.10,2013-01-28 12:45:00,
2013-01-28 07:00:00,65.8,60.0,29.85,SSW,213,13.0,-999.0,82,-99.99,,,0.00,weatherlink.com 1.10,2013-01-28 13:00:00,
2013-01-28 07:15:00,65.8,60.0,29.86,SSW,207,14.0,-999.0,82,-99.99,,,0.00,weatherlink.com 1.10,2013-01-28 13:15:00,
2013-01-28 07:30:00,65.6,60.0,29.86,South,175,9.0,-999.0,82,-99.99,,,0.00,weatherlink.com 1.10,2013-01-28 13:30:00,
2013-01-28 07:45:00,65.5,60.0,29.86,SSW,198,12.0,-999.0,83,-99.99,,,0.00,weatherlink.com 1.10,2013-01-28 13:45:00,
2013-01-28 08:00:00,65.6,60.0,29.86,South,175,10.0,-999.0,83,-99.99,,,0.00,weatherlink.com 1.10,2013-01-28 14:00:00,
2013-01-28 08:15:00,65.8,61.0,29.86,SSW,207,13.0,-999.0,83,-99.99,,,0.00,weatherlink.com 1.10,2013-01-28 14:15:00,
2013-01-28 08:30:00,66.3,61.0,29.86,South,191,11.0,-999.0,82,-99.99,,,0.00,weatherlink.com 1.10,2013-01-28 14:30:00,
2013-01-28 08:45:00,66.8,61.0,29.86,SSW,192,11.0,-999.0,81,-99.99,,,0.00,weatherlink.com 1.10,2013-01-28 14:45:00,
2013-01-28 09:00:00,67.4,61.0,29.87,SW,228,11.0,-999.0,80,-99.99,,,0.00,weatherlink.com 1.10,2013-01-28 15:00:00,
2013-01-28 09:15:00,68.1,61.0,29.87,SSW,207,11.0,-999.0,79,-99.99,,,0.00,weatherlink.com 1.10,2013-01-28 15:15:00,
2013-01-28 09:30:00,68.3,61.0,29.87,SSW,211,11.0,-999.0,78,-99.99,,,0.00,weatherlink.com 1.10,2013-01-28 15:30:00,
2013-01-28 09:45:00,68.3,61.0,29.87,SW,220,18.0,-999.0,78,-99.99,,,0.00,weatherlink.com 1.10,2013-01-28 15:45:00,
2013-01-28 10:00:00,68.3,61.0,29.88,SSW,200,8.0,-999.0,78,-99.99,,,0.00,weatherlink.com 1.10,2013-01-28 16:00:00,
2013-01-28 10:15:00,68.6,61.0,29.88,SSW,192,10.0,-999.0,77,-99.99,,,0.00,weatherlink.com 1.10,2013-01-28 16:15:00,
2013-01-28 10:30:00,68.9,61.0,29.88,South,190,14.0,-999.0,76,-99.99,,,0.00,weatherlink.com 1.10,2013-01-28 16:30:00,
2013-01-28 10:45:00,69.3,61.0,29.88,SSE,157,6.0,-999.0,76,-99.99,,,0.00,weatherlink.com 1.10,2013-01-28 16:45:00,
2013-01-28 11:00:00,70.3,61.0,29.88,SSW,194,6.0,-999.0,73,-99.99,,,0.00,weatherlink.com 1.10,2013-01-28 17:00:00,
2013-01-28 11:15:00,70.4,61.0,29.87,SSE,167,15.0,-999.0,72,-99.99,,,0.00,weatherlink.com 1.10,2013-01-28 17:15:00,
2013-01-28 11:30:00,70.3,61.0,29.87,SSW,194,18.0,-999.0,73,-99.99,,,0.00,weatherlink.com 1.10,2013-01-28 17:30:00,
2013-01-28 11:45:00,70.1,61.0,29.87,South,184,16.0,-999.0,73,-99.99,,,0.00,weatherlink.com 1.10,2013-01-28 17:45:00,
2013-01-28 12:00:00,70.4,61.0,29.86,South,174,15.0,-999.0,72,-99.99,,,0.00,weatherlink.com 1.10,2013-01-28 18:00:00,
2013-01-28 12:15:00,71.1,61.0,29.84,SSW,196,24.0,-999.0,70,-99.99,,,0.00,weatherlink.com 1.10,2013-01-28 18:15:00,
2013-01-28 12:30:00,72.0,60.0,29.84,South,186,13.0,-999.0,67,-99.99,,,0.00,weatherlink.com 1.10,2013-01-28 18:30:00,
2013-01-28 12:45:00,72.1,61.0,29.84,South,185,3.0,-999.0,67,-99.99,,,0.00,weatherlink.com 1.10,2013-01-28 18:45:00,
2013-01-28 13:00:00,72.3,61.0,29.81,SSE,161,12.0,-999.0,67,-99.99,,,0.00,weatherlink.com 1.10,2013-01-28 19:00:00,
2013-01-28 13:15:00,72.0,60.0,29.80,SSW,198,6.0,-999.0,67,-99.99,,,0.00,weatherlink.com 1.10,2013-01-28 19:15:00,
2013-01-28 13:30:00,73.3,60.0,29.79,SSW,197,12.0,-999.0,64,-99.99,,,0.00,weatherlink.com 1.10,2013-01-28 19:30:00,
2013-01-28 13:45:00,73.5,60.0,29.79,South,186,10.0,-999.0,62,-99.99,,,0.00,weatherlink.com 1.10,2013-01-28 19:45:00,
2013-01-28 14:00:00,73.5,60.0,29.77,SSW,212,15.0,-999.0,62,-99.99,,,0.00,weatherlink.com 1.10,2013-01-28 20:00:00,
2013-01-28 14:15:00,73.7,60.0,29.76,SW,215,19.0,-999.0,63,-99.99,,,0.00,weatherlink.com 1.10,2013-01-28 20:15:00,
2013-01-28 14:30:00,73.9,60.0,29.76,South,172,11.0,-999.0,62,-99.99,,,0.00,weatherlink.com 1.10,2013-01-28 20:30:00,
2013-01-28 14:45:00,73.9,60.0,29.76,SSW,212,12.0,-999.0,62,-99.99,,,0.00,weatherlink.com 1.10,2013-01-28 20:45:00,
2013-01-28 15:00:00,74.0,60.0,29.76,SSW,197,13.0,-999.0,61,-99.99,,,0.00,weatherlink.com 1.10,2013-01-28 21:00:00,
2013-01-28 15:15:00,74.0,60.0,29.75,SSW,206,9.0,-999.0,61,-99.99,,,0.00,weatherlink.com 1.10,2013-01-28 21:15:00,
2013-01-28 15:30:00,73.9,60.0,29.75,South,187,8.0,-999.0,62,-99.99,,,0.00,weatherlink.com 1.10,2013-01-28 21:30:00,
2013-01-28 15:45:00,73.9,60.0,29.75,SSW,211,14.0,-999.0,62,-99.99,,,0.00,weatherlink.com 1.10,2013-01-28 21:45:00,
2013-01-28 16:00:00,73.5,60.0,29.74,SSW,196,5.0,-999.0,63,-99.99,,,0.00,weatherlink.com 1.10,2013-01-28 22:00:00,
2013-01-28 16:15:00,73.2,60.0,29.74,SSE,165,6.0,-999.0,64,-99.99,,,0.00,weatherlink.com 1.10,2013-01-28 22:15:00,
2013-01-28 16:30:00,72.7,61.0,29.74,SSE,167,10.0,-999.0,66,-99.99,,,0.00,weatherlink.com 1.10,2013-01-28 22:30:00,
2013-01-28 16:45:00,72.3,61.0,29.74,SSW,198,6.0,-999.0,67,-99.99,,,0.00,weatherlink.com 1.10,2013-01-28 22:45:00,
2013-01-28 17:00:00,72.1,61.0,29.74,South,173,11.0,-999.0,68,-99.99,,,0.00,weatherlink.com 1.10,2013-01-28 23:00:00,
2013-01-28 17:15:00,71.3,61.0,29.74,SSE,148,10.0,-999.0,70,-99.99,,,0.00,weatherlink.com 1.10,2013-01-28 23:15:00,
2013-01-28 17:30:00,70.6,61.0,29.74,SSE,157,4.0,-999.0,72,-99.99,,,0.00,weatherlink.com 1.10,2013-01-28 23:30:00,
2013-01-28 17:45:00,70.3,61.0,29.74,SSE,156,19.0,-999.0,73,-99.99,,,0.00,weatherlink.com 1.10,2013-01-28 23:45:00,
2013-01-28 18:00:00,70.1,61.0,29.74,South,182,5.0,-999.0,73,-99.99,,,0.00,weatherlink.com 1.10,2013-01-29 00:00:00,
2013-01-28 18:15:00,69.9,61.0,29.74,South,169,11.0,-999.0,74,-99.99,,,0.00,weatherlink.com 1.10,2013-01-29 00:15:00,
2013-01-28 18:30:00,69.8,61.0,29.74,South,182,9.0,-999.0,74,-99.99,,,0.00,weatherlink.com 1.10,2013-01-29 00:30:00,
2013-01-28 18:45:00,69.6,61.0,29.74,SSE,167,8.0,-999.0,74,-99.99,,,0.00,weatherlink.com 1.10,2013-01-29 00:45:00,
2013-01-28 19:00:00,69.3,61.0,29.74,SSE,161,11.0,-999.0,75,-99.99,,,0.00,weatherlink.com 1.10,2013-01-29 01:00:00,
2013-01-28 19:15:00,69.1,61.0,29.74,South,175,10.0,-999.0,75,-99.99,,,0.00,weatherlink.com 1.10,2013-01-29 01:15:00,
2013-01-28 19:30:00,68.9,61.0,29.74,South,182,10.0,-999.0,76,-99.99,,,0.00,weatherlink.com 1.10,2013-01-29 01:30:00,
2013-01-28 19:45:00,68.8,61.0,29.74,SSE,155,6.0,-999.0,76,-99.99,,,0.00,weatherlink.com 1.10,2013-01-29 01:45:00,
2013-01-28 20:00:00,68.6,61.0,29.73,SSE,156,12.0,-999.0,76,-99.99,,,0.00,weatherlink.com 1.10,2013-01-29 02:00:00,
2013-01-28 20:15:00,68.4,61.0,29.73,South,169,11.0,-999.0,77,-99.99,,,0.00,weatherlink.com 1.10,2013-01-29 02:15:00,
2013-01-28 20:30:00,68.4,61.0,29.72,South,180,8.0,-999.0,77,-99.99,,,0.00,weatherlink.com 1.10,2013-01-29 02:30:00,
2013-01-28 20:45:00,68.4,61.0,29.72,SSE,163,9.0,-999.0,77,-99.99,,,0.00,weatherlink.com 1.10,2013-01-29 02:45:00,
2013-01-28 21:00:00,68.6,61.0,29.71,South,184,13.0,-999.0,77,-99.99,,,0.00,weatherlink.com 1.10,2013-01-29 03:00:00,
2013-01-28 21:15:00,68.6,61.0,29.71,SE,138,10.0,-999.0,77,-99.99,,,0.00,weatherlink.com 1.10,2013-01-29 03:15:00,
2013-01-28 21:30:00,68.4,61.0,29.72,South,183,12.0,-999.0,77,-99.99,,,0.00,weatherlink.com 1.10,2013-01-29 03:30:00,
2013-01-28 21:45:00,68.4,61.0,29.72,SSE,165,9.0,-999.0,78,-99.99,,,0.00,weatherlink.com 1.10,2013-01-29 03:45:00,
2013-01-28 22:00:00,68.9,61.0,29.72,South,185,13.0,-999.0,76,-99.99,,,0.00,weatherlink.com 1.10,2013-01-29 04:00:00,
2013-01-28 22:15:00,69.1,61.0,29.71,South,172,12.0,-999.0,76,-99.99,,,0.00,weatherlink.com 1.10,2013-01-29 04:15:00,
2013-01-28 22:30:00,68.9,61.0,29.71,South,171,13.0,-999.0,75,-99.99,,,0.00,weatherlink.com 1.10,2013-01-29 04:30:00,
2013-01-28 22:45:00,68.9,61.0,29.71,South,177,6.0,-999.0,75,-99.99,,,0.00,weatherlink.com 1.10,2013-01-29 04:45:00,
2013-01-28 23:00:00,68.8,61.0,29.71,SSE,163,12.0,-999.0,75,-99.99,,,0.00,weatherlink.com 1.10,2013-01-29 05:00:00,
2013-01-28 23:15:00,68.6,60.0,29.71,SSW,209,12.0,-999.0,75,-99.99,,,0.00,weatherlink.com 1.10,2013-01-29 05:15:00,
2013-01-28 23:30:00,68.4,60.0,29.70,South,177,10.0,-999.0,75,-99.99,,,0.00,weatherlink.com 1.10,2013-01-29 05:30:00,
2013-01-28 23:45:00,68.3,60.0,29.70,South,190,13.0,-999.0,75,-99.99,,,0.00,weatherlink.com 1.10,2013-01-29 05:45:00,